Saturday, January 20, 2018, 8:23 AM EST
Back to Local

KPYM, Plymouth Municipal Airport

Location: Carver, MA, United States Lat: 41.9
Local Time: 8:23 AM EST (13:23 GMT) Lon: -70.733
Time Zone: US/Eastern Elev: 147 ft

Show me the last for .
Show Coded

Time T Td Feel RH Dir Speed Gust Alt SLP Vis Weather Sky Remarks
2018-01-20 07:52 39 24 29 54 220° 15 22 29.73 29.73 10 CLR None
2018-01-20 06:52 37 24 30 59 220° 10 - 29.74 29.74 10 CLR 6-hr Min Temp (7am): 27.0°F
6-hr Max Temp (7am): 37.0°F
2018-01-20 05:52 36 24 28 61 210° 10 - 29.76 29.77 10 CLR None
2018-01-20 04:52 35 25 28 66 200° 9 - 29.79 29.79 10 CLR Pressure falling rapidly
2018-01-20 03:52 33 24 27 69 210° 7 - 29.83 29.83 10 CLR None
2018-01-20 01:52 31 21 24 66 190° 7 - 29.85 29.86 10 CLR None
2018-01-20 00:52 30 19 - 63 - Calm - 29.88 29.88 10 CLR 6-hr Min Temp (1am): 28.9°F
6-hr Max Temp (1am): 32.0°F
2018-01-19 23:52 30 19 25 63 200° 5 - 29.92 29.92 10 CLR 24-hr Min Temp (12am): 19.9°F
24-hr Max Temp (12am): 37.0°F
2018-01-19 22:52 30 20 23 65 220° 7 - 29.94 29.95 10 CLR None
2018-01-19 21:52 30 20 23 65 220° 7 - 29.96 29.96 10 CLR None
2018-01-19 20:52 31 20 24 63 230° 7 - 29.96 29.96 10 OVC037 None
2018-01-19 19:52 30 19 24 63 240° 6 - 29.95 29.95 10 BKN039 None
2018-01-19 18:52 30 21 25 68 230° 5 - 29.94 29.94 10 OVC038 6-hr Min Temp (7pm): 28.9°F
6-hr Max Temp (7pm): 37.0°F
2018-01-19 17:52 31 20 27 63 220° 3 - 29.95 29.95 10 BKN041 None
2018-01-19 16:52 32 20 27 60 220° 5 - 29.95 29.95 10 SCT038 None
2018-01-19 15:52 35 20 29 53 250° 7 - 29.93 29.94 10 CLR None
2018-01-19 14:52 36 20 31 51 240° 6 - 29.92 29.93 10 CLR None
2018-01-19 13:52 36 19 28 49 250° 10 - 29.91 29.92 10 CLR None
2018-01-19 13:05 35 19 29 51 250° 8 - 29.92 - 10 SCT029 None
2018-01-19 12:52 35 19 29 51 280° 8 - 29.92 29.93 10 BKN029 6-hr Min Temp (1pm): 19.9°F
6-hr Max Temp (1pm): 35.1°F
2018-01-19 12:45 34 19 28 53 220° 7 - 29.92 - 10 BKN029 None
2018-01-19 11:52 33 19 26 55 300° 8 - 29.95 29.95 10 CLR None
2018-01-19 10:52 32 19 26 58 290° 7 - 29.98 29.98 10 CLR None
2018-01-19 09:52 29 18 20 63 270° 10 - 29.99 30.00 10 CLR None
2018-01-19 08:52 26 17 17 68 270° 9 - 29.99 29.99 10 SCT042 None

Support USWX by starting your Amazon purchase here.